Time;durP1;ratioP1;P1;durP2;ratioP2;P2;SDS_P1;SDS_P2;PMS_P1;PMS_P2;Temp;Humidity;BMP_temperature;BMP_pressure;BME280_temperature;BME280_humidity;BME280_pressure;Samples;Min_cycle;Max_cycle;Signal;HPM_P1;HPM_P2
2022/05/30 00:02:00;;;;;;;1.30;0.57;;;14.70;37.40;;;;;;2568556;53;20917;-76
2022/05/30 00:04:27;;;;;;;0.85;0.40;;;14.60;37.40;;;;;;2585660;53;20928;-76
2022/05/30 00:06:53;;;;;;;1.27;0.50;;;14.60;37.40;;;;;;2337686;54;21071;-76
2022/05/30 00:09:19;;;;;;;1.35;0.40;;;14.60;37.40;;;;;;2338627;54;20964;-77
2022/05/30 00:11:48;;;;;;;1.83;0.50;;;14.50;37.30;;;;;;2340688;54;21449;-76
2022/05/30 00:14:16;;;;;;;1.62;0.50;;;14.50;37.30;;;;;;2586320;53;20987;-76
2022/05/30 00:16:43;;;;;;;2.92;0.60;;;14.50;37.40;;;;;;2351081;54;20936;-76
2022/05/30 00:19:09;;;;;;;1.15;0.40;;;14.40;37.30;;;;;;2340346;54;20976;-76
2022/05/30 00:21:36;;;;;;;1.95;0.50;;;14.40;37.50;;;;;;2340249;54;21299;-76
2022/05/30 00:24:04;;;;;;;1.73;0.60;;;14.30;37.50;;;;;;2340743;54;20969;-76
2022/05/30 00:26:30;;;;;;;2.45;0.60;;;14.20;37.40;;;;;;2582337;53;20952;-76
2022/05/30 00:28:57;;;;;;;1.08;0.32;;;14.20;37.50;;;;;;2341065;54;20920;-76
2022/05/30 00:31:23;;;;;;;1.62;0.73;;;14.10;37.50;;;;;;2339936;54;20947;-76
2022/05/30 00:33:49;;;;;;;2.22;0.60;;;14.10;37.50;;;;;;2340580;54;20912;-76
2022/05/30 00:36:16;;;;;;;1.75;0.60;;;14.00;37.60;;;;;;2339797;54;20969;-75
2022/05/30 00:38:42;;;;;;;2.67;0.52;;;13.90;37.50;;;;;;2443184;53;20936;-76
2022/05/30 00:41:08;;;;;;;2.37;0.60;;;13.90;37.80;;;;;;2344174;54;21074;-76
2022/05/30 00:43:39;;;;;;;1.58;0.50;;;13.80;37.80;;;;;;2341260;53;20959;-75
2022/05/30 00:46:12;;;;;;;2.62;0.62;;;13.70;37.90;;;;;;2351533;53;20963;-76
2022/05/30 00:48:42;;;;;;;1.02;0.55;;;13.80;38.00;;;;;;2342063;53;21043;-76
2022/05/30 00:51:10;;;;;;;3.55;0.70;;;13.70;37.90;;;;;;2340739;54;21055;-76
2022/05/30 00:53:40;;;;;;;2.08;0.57;;;13.70;38.00;;;;;;2339779;53;20943;-76
2022/05/30 00:56:09;;;;;;;1.17;0.50;;;13.60;38.10;;;;;;2476154;53;20945;-75
2022/05/30 00:58:37;;;;;;;2.10;0.50;;;13.60;38.10;;;;;;2351356;53;21447;-76
2022/05/30 01:01:04;;;;;;;1.50;0.45;;;13.60;38.10;;;;;;2347512;53;20915;-75
2022/05/30 01:06:31;;;;;;;1.40;0.37;;;13.40;38.10;;;;;;2349924;53;21433;-75
2022/05/30 01:09:06;;;;;;;0.98;0.47;;;13.40;38.30;;;;;;2346218;53;20962;-76
2022/05/30 01:12:10;;;;;;;1.35;0.50;;;13.30;38.20;;;;;;2418453;53;21896;-76
2022/05/30 01:14:39;;;;;;;1.73;0.50;;;13.30;38.60;;;;;;2352148;53;21863;-76
2022/05/30 01:17:15;;;;;;;0.65;0.35;;;13.20;38.30;;;;;;2348344;53;20950;-75
2022/05/30 01:20:01;;;;;;;1.15;0.40;;;13.20;38.50;;;;;;2555898;53;21079;-76
2022/05/30 01:23:17;;;;;;;0.90;0.40;;;13.10;38.50;;;;;;2342647;53;21074;-76
2022/05/30 01:27:23;;;;;;;0.82;0.40;;;13.10;38.60;;;;;;2591824;53;20907;-75
2022/05/30 01:30:01;;;;;;;0.62;0.35;;;13.00;38.50;;;;;;2340915;54;21900;-75
2022/05/30 01:32:28;;;;;;;0.95;0.45;;;12.90;38.20;;;;;;2379289;53;22451;-75
2022/05/30 01:34:54;;;;;;;1.15;0.60;;;12.90;38.20;;;;;;2340722;54;20940;-76
2022/05/30 01:37:24;;;;;;;1.33;0.62;;;12.80;38.30;;;;;;2340199;54;21105;-76
2022/05/30 01:39:50;;;;;;;1.52;0.50;;;12.80;38.40;;;;;;2340788;54;21043;-76
2022/05/30 01:42:18;;;;;;;1.23;0.50;;;12.70;38.30;;;;;;2339946;54;21015;-76
2022/05/30 01:44:44;;;;;;;2.10;0.80;;;12.70;38.40;;;;;;2340544;54;20956;-75
2022/05/30 01:47:10;;;;;;;1.58;0.65;;;12.60;38.40;;;;;;2489834;53;21014;-76
2022/05/30 01:49:37;;;;;;;1.30;0.50;;;12.60;38.50;;;;;;2343175;53;21955;-76
2022/05/30 01:52:06;;;;;;;1.02;0.50;;;12.50;38.60;;;;;;2340455;54;21860;-76
2022/05/30 01:54:32;;;;;;;1.40;0.60;;;12.50;38.70;;;;;;2339390;54;21741;-76
2022/05/30 01:56:59;;;;;;;2.55;0.60;;;12.40;38.60;;;;;;2340531;54;20944;-75
2022/05/30 01:59:25;;;;;;;2.00;0.80;;;12.40;38.70;;;;;;2384830;53;20944;-75
2022/05/30 02:01:52;;;;;;;1.25;0.43;;;12.30;38.70;;;;;;2340870;54;21031;-75
2022/05/30 02:04:19;;;;;;;1.02;0.50;;;12.30;38.90;;;;;;2344710;53;21639;-76
2022/05/30 02:06:45;;;;;;;4.22;0.80;;;12.30;38.90;;;;;;2340837;54;20955;-77
2022/05/30 02:09:11;;;;;;;1.30;0.60;;;12.20;38.90;;;;;;2361637;53;20967;-74
2022/05/30 02:11:39;;;;;;;2.28;0.50;;;12.20;38.90;;;;;;2342297;53;20988;-75
2022/05/30 02:14:05;;;;;;;1.25;0.60;;;12.20;39.00;;;;;;2586452;53;21022;-76
2022/05/30 02:19:20;;;;;;;2.20;0.50;;;12.00;38.90;;;;;;2340650;54;20992;-75
2022/05/30 02:21:55;;;;;;;2.90;0.80;;;11.90;38.90;;;;;;2346027;53;21014;-76
2022/05/30 02:24:23;;;;;;;1.65;0.50;;;11.90;39.10;;;;;;2346043;53;20991;-75
2022/05/30 02:26:49;;;;;;;2.42;0.60;;;11.80;39.00;;;;;;2341172;53;20928;-77
2022/05/30 02:29:15;;;;;;;1.75;0.60;;;11.80;39.00;;;;;;2506827;53;21274;-75
2022/05/30 02:31:42;;;;;;;1.60;0.70;;;11.70;39.00;;;;;;2340713;54;20951;-76
2022/05/30 02:36:53;;;;;;;1.15;0.50;;;11.60;39.10;;;;;;2345363;53;21074;-75
2022/05/30 02:39:21;;;;;;;1.35;0.60;;;11.50;39.10;;;;;;2453197;53;20972;-76
2022/05/30 02:41:47;;;;;;;1.65;0.70;;;11.50;39.20;;;;;;2441440;53;20927;-75
2022/05/30 02:44:14;;;;;;;1.70;0.65;;;11.50;39.30;;;;;;2346905;53;20979;-75
2022/05/30 02:46:41;;;;;;;1.87;0.70;;;11.40;39.20;;;;;;2419312;53;20940;-75
2022/05/30 02:49:08;;;;;;;1.70;0.65;;;11.40;39.30;;;;;;2341369;54;21020;-76
2022/05/30 02:51:34;;;;;;;1.40;0.55;;;11.30;39.30;;;;;;2339736;53;21339;-76
2022/05/30 02:54:01;;;;;;;2.10;0.77;;;11.20;39.20;;;;;;2348269;53;20955;-76
2022/05/30 02:56:28;;;;;;;1.58;0.70;;;11.20;39.50;;;;;;2413780;53;21114;-76
2022/05/30 02:58:56;;;;;;;1.92;0.70;;;11.10;39.70;;;;;;2497434;53;20944;-75
2022/05/30 03:01:24;;;;;;;1.98;0.77;;;11.10;39.80;;;;;;2400931;53;20982;-74
2022/05/30 03:03:50;;;;;;;1.20;0.60;;;11.10;39.70;;;;;;2467744;53;21665;-75
2022/05/30 03:06:22;;;;;;;1.17;0.52;;;11.00;39.70;;;;;;2341736;53;21480;-75
2022/05/30 03:08:49;;;;;;;1.35;0.60;;;10.90;39.70;;;;;;2375712;53;20903;-75
2022/05/30 03:11:15;;;;;;;1.00;0.52;;;10.90;39.70;;;;;;2340469;54;20992;-76
2022/05/30 03:13:45;;;;;;;2.10;0.60;;;10.80;39.60;;;;;;2340389;54;21447;-76
2022/05/30 03:16:13;;;;;;;1.27;0.60;;;10.80;39.80;;;;;;2366903;53;20987;-76
2022/05/30 03:18:40;;;;;;;2.03;0.70;;;10.80;39.90;;;;;;2387673;54;20935;-76
2022/05/30 03:21:07;;;;;;;2.60;0.60;;;10.70;39.90;;;;;;2426111;53;21607;-77
2022/05/30 03:23:33;;;;;;;1.45;0.68;;;10.70;40.00;;;;;;2341984;53;21067;-76
2022/05/30 03:26:00;;;;;;;1.37;0.70;;;10.70;40.10;;;;;;2341662;53;21004;-76
2022/05/30 03:28:27;;;;;;;1.08;0.52;;;10.60;40.10;;;;;;2343082;53;21746;-76
2022/05/30 03:30:54;;;;;;;0.75;0.45;;;10.60;40.10;;;;;;2340861;54;20967;-76
2022/05/30 03:33:21;;;;;;;1.08;0.60;;;10.60;40.10;;;;;;2346444;53;21010;-76
2022/05/30 03:35:47;;;;;;;1.45;0.70;;;10.50;40.10;;;;;;2345502;53;20975;-76
2022/05/30 03:38:14;;;;;;;1.42;0.60;;;10.50;40.20;;;;;;2352305;53;20976;-75
2022/05/30 03:40:44;;;;;;;2.20;0.90;;;10.40;40.20;;;;;;2341390;53;21044;-74
2022/05/30 03:43:20;;;;;;;;;;;;;;;;;;;;;
2022/05/30 03:45:47;;;;;;;1.30;0.62;;;10.40;40.40;;;;;;2350463;53;20916;-76
2022/05/30 03:48:20;;;;;;;1.73;0.70;;;10.30;40.40;;;;;;2357023;53;20975;-76
2022/05/30 03:50:48;;;;;;;1.52;0.60;;;10.30;40.50;;;;;;2325812;54;20991;-75
2022/05/30 03:53:22;;;;;;;1.25;0.60;;;10.30;40.60;;;;;;2353534;54;20927;-75
2022/05/30 03:55:48;;;;;;;1.40;0.68;;;10.30;40.80;;;;;;2346877;53;20948;-76
2022/05/30 03:58:20;;;;;;;2.22;0.75;;;10.20;40.60;;;;;;2511544;53;21000;-75
2022/05/30 04:00:49;;;;;;;1.30;0.60;;;10.20;40.90;;;;;;2350714;53;20915;-75
2022/05/30 04:03:19;;;;;;;1.67;0.80;;;10.20;40.80;;;;;;2341193;54;20980;-76
2022/05/30 04:06:01;;;;;;;1.62;0.60;;;10.10;40.70;;;;;;2351318;53;20955;-75
2022/05/30 04:08:28;;;;;;;2.10;0.70;;;10.10;41.20;;;;;;2346697;53;21023;-75
2022/05/30 04:11:05;;;;;;;1.10;0.60;;;10.10;40.80;;;;;;2351652;53;20954;-75
2022/05/30 04:13:33;;;;;;;2.15;0.65;;;10.10;41.00;;;;;;2343301;53;21056;-76
2022/05/30 04:16:33;;;;;;;2.33;0.80;;;10.10;40.90;;;;;;2340445;53;20971;-75
2022/05/30 04:19:20;;;;;;;2.47;0.73;;;10.00;41.20;;;;;;2345887;53;20962;-75
2022/05/30 04:25:00;;;;;;;1.77;0.70;;;10.00;40.80;;;;;;2349144;53;20974;-75
2022/05/30 04:27:33;;;;;;;2.08;0.70;;;9.90;42.20;;;;;;2346862;53;21140;-76
2022/05/30 04:30:00;;;;;;;4.28;0.88;;;9.90;41.70;;;;;;2359270;53;21013;-76
2022/05/30 04:32:44;;;;;;;1.75;0.80;;;9.90;41.80;;;;;;2341197;53;20952;-75
2022/05/30 04:35:14;;;;;;;1.62;0.85;;;9.80;41.80;;;;;;2347446;53;21314;-76
2022/05/30 04:41:08;;;;;;;1.80;0.90;;;9.80;42.80;;;;;;2329708;54;21863;-75
2022/05/30 04:43:43;;;;;;;2.20;0.90;;;9.80;42.20;;;;;;2344187;53;20944;-77
2022/05/30 04:46:15;;;;;;;1.83;0.90;;;9.80;42.50;;;;;;2325702;54;21011;-75
2022/05/30 04:48:42;;;;;;;1.97;0.93;;;9.80;42.70;;;;;;2388624;53;20943;-76
2022/05/30 04:51:09;;;;;;;1.87;0.75;;;9.80;42.60;;;;;;2341827;53;20936;-75
2022/05/30 04:53:45;;;;;;;1.70;0.80;;;9.80;42.80;;;;;;2329883;53;21058;-75
2022/05/30 04:56:58;;;;;;;4.05;0.88;;;9.80;42.90;;;;;;2543451;53;20963;-75
2022/05/30 05:04:02;;;;;;;;;;;;;;;;;;;;;
2022/05/30 05:12:30;;;;;;;2.00;0.97;;;9.90;43.20;;;;;;2338794;54;20968;-75
2022/05/30 05:14:57;;;;;;;1.55;0.60;;;10.00;42.20;;;;;;2345633;53;21230;-75
2022/05/30 05:17:27;;;;;;;2.22;0.85;;;10.00;42.50;;;;;;2422165;53;21020;-74
2022/05/30 05:19:54;;;;;;;1.25;0.55;;;10.00;42.60;;;;;;2387475;53;20970;-75
2022/05/30 05:22:23;;;;;;;2.20;0.93;;;10.10;42.80;;;;;;2341559;53;20912;-76
2022/05/30 05:24:50;;;;;;;2.60;1.17;;;10.10;43.10;;;;;;2340702;54;21452;-75
2022/05/30 05:27:23;;;;;;;2.22;0.80;;;10.10;43.10;;;;;;2346469;53;20923;-76
2022/05/30 05:29:52;;;;;;;3.05;1.20;;;10.20;43.40;;;;;;2341602;53;20952;-75
2022/05/30 05:32:38;;;;;;;2.87;0.62;;;10.20;43.30;;;;;;2341862;54;20971;-76
2022/05/30 05:35:05;;;;;;;2.15;0.80;;;10.30;43.40;;;;;;2341893;54;20924;-75
2022/05/30 05:37:43;;;;;;;2.20;0.95;;;10.40;43.70;;;;;;2360704;53;20945;-76
2022/05/30 05:43:23;;;;;;;2.58;1.10;;;10.50;43.90;;;;;;2341991;54;20980;-75
2022/05/30 05:45:49;;;;;;;2.30;1.10;;;10.50;43.90;;;;;;2345344;53;20950;-76
2022/05/30 05:48:19;;;;;;;2.85;1.30;;;10.60;44.10;;;;;;2341925;53;20913;-77
2022/05/30 05:50:45;;;;;;;1.67;0.90;;;10.70;44.30;;;;;;2326179;54;21000;-76
2022/05/30 05:53:14;;;;;;;2.87;1.10;;;10.70;44.30;;;;;;2340520;54;20944;-75
2022/05/30 05:55:40;;;;;;;3.25;1.20;;;10.80;44.30;;;;;;2340905;53;20968;-76
2022/05/30 05:58:07;;;;;;;3.35;1.45;;;10.90;44.60;;;;;;2340766;54;21015;-75
2022/05/30 06:00:33;;;;;;;3.17;1.52;;;11.00;44.80;;;;;;2340455;54;21397;-76
2022/05/30 06:02:59;;;;;;;2.92;1.30;;;11.00;45.00;;;;;;2478078;53;20988;-76
2022/05/30 06:05:26;;;;;;;3.70;1.37;;;11.10;45.10;;;;;;2338886;53;20968;-76
2022/05/30 06:07:53;;;;;;;2.83;1.20;;;11.20;45.10;;;;;;2343205;53;21260;-77
2022/05/30 06:10:20;;;;;;;4.22;1.37;;;11.30;45.10;;;;;;2385351;54;20996;-77
2022/05/30 06:12:47;;;;;;;3.00;1.30;;;11.40;45.70;;;;;;2338956;53;21011;-76
2022/05/30 06:15:15;;;;;;;3.28;1.40;;;11.40;45.20;;;;;;2527039;53;21011;-76
2022/05/30 06:17:42;;;;;;;3.37;1.60;;;11.50;45.30;;;;;;2355882;53;21012;-76
2022/05/30 06:20:09;;;;;;;3.62;1.30;;;11.60;45.50;;;;;;2340758;54;20940;-76
2022/05/30 06:22:36;;;;;;;4.05;1.25;;;11.70;45.60;;;;;;2393395;53;20939;-76
2022/05/30 06:25:02;;;;;;;3.58;1.45;;;11.80;45.50;;;;;;2538480;53;20958;-76
2022/05/30 06:27:28;;;;;;;3.85;1.20;;;11.80;45.40;;;;;;2340060;54;20928;-75
2022/05/30 06:29:55;;;;;;;3.15;1.10;;;11.90;45.50;;;;;;2512933;53;21015;-75
2022/05/30 06:32:21;;;;;;;3.58;1.20;;;12.00;45.50;;;;;;2443369;53;20944;-76
2022/05/30 06:34:47;;;;;;;2.75;1.20;;;12.10;45.60;;;;;;2340859;54;21095;-75
2022/05/30 06:37:15;;;;;;;2.80;1.20;;;12.20;45.80;;;;;;2340179;53;20991;-75
2022/05/30 06:39:41;;;;;;;3.28;1.20;;;12.20;45.80;;;;;;2340573;54;21004;-76
2022/05/30 06:42:09;;;;;;;2.85;1.10;;;12.30;45.70;;;;;;2519146;53;20936;-75
2022/05/30 06:44:36;;;;;;;2.78;1.30;;;12.40;45.80;;;;;;2340513;54;20976;-75
2022/05/30 06:47:03;;;;;;;2.80;1.20;;;12.50;45.90;;;;;;2346469;53;20926;-77
2022/05/30 06:49:30;;;;;;;2.83;1.20;;;12.60;46.00;;;;;;2340713;53;20984;-76
2022/05/30 06:51:57;;;;;;;5.90;1.40;;;12.60;45.90;;;;;;2341013;54;21508;-76
2022/05/30 06:54:23;;;;;;;4.12;1.77;;;12.70;46.00;;;;;;2346081;53;21771;-77
2022/05/30 06:59:34;;;;;;;2.62;1.23;;;12.90;46.20;;;;;;2476199;53;20911;-75
2022/05/30 07:02:03;;;;;;;2.10;1.05;;;13.00;46.10;;;;;;2359763;53;20920;-76
2022/05/30 07:04:31;;;;;;;2.78;1.00;;;13.10;46.20;;;;;;2333891;53;20988;-76
2022/05/30 07:06:57;;;;;;;3.55;1.50;;;13.20;46.30;;;;;;2389634;53;20936;-76
2022/05/30 07:09:23;;;;;;;2.30;1.00;;;13.30;46.30;;;;;;2339902;54;21861;-76
2022/05/30 07:11:50;;;;;;;4.15;1.42;;;13.40;46.40;;;;;;2349619;53;21567;-76
2022/05/30 07:14:16;;;;;;;3.05;1.40;;;13.60;46.60;;;;;;2336667;53;21809;-75
2022/05/30 07:16:43;;;;;;;3.30;1.20;;;13.70;46.40;;;;;;2339766;54;20960;-76
2022/05/30 07:19:09;;;;;;;3.72;1.10;;;13.80;46.30;;;;;;2444565;53;20940;-77
2022/05/30 07:21:36;;;;;;;2.58;1.08;;;13.90;46.50;;;;;;2505451;53;20928;-76
2022/05/30 07:24:06;;;;;;;2.55;1.00;;;14.00;46.60;;;;;;2340750;54;20897;-76
2022/05/30 07:26:32;;;;;;;2.47;0.90;;;14.10;46.60;;;;;;2586276;53;20952;-76
2022/05/30 07:28:58;;;;;;;2.60;1.02;;;14.20;46.70;;;;;;2324238;54;21480;-76
2022/05/30 07:31:29;;;;;;;2.20;0.90;;;14.30;46.80;;;;;;2340476;54;20999;-76
2022/05/30 07:33:55;;;;;;;3.30;1.17;;;14.50;46.70;;;;;;2340670;54;20936;-76
2022/05/30 07:36:24;;;;;;;3.20;1.30;;;14.60;46.60;;;;;;2353273;53;20996;-76
2022/05/30 07:38:51;;;;;;;2.62;0.90;;;14.70;46.60;;;;;;2340594;54;21761;-76
2022/05/30 07:41:17;;;;;;;3.62;1.00;;;14.80;46.40;;;;;;2341380;53;21960;-75
2022/05/30 07:43:44;;;;;;;2.25;1.02;;;14.90;46.30;;;;;;2351861;53;21024;-76
2022/05/30 07:46:12;;;;;;;3.47;1.20;;;15.00;46.10;;;;;;2340834;54;20991;-75
2022/05/30 07:48:38;;;;;;;3.37;1.10;;;15.20;46.00;;;;;;2488371;53;21019;-75
2022/05/30 07:51:05;;;;;;;2.05;0.90;;;15.30;46.00;;;;;;2369124;53;20995;-76
2022/05/30 07:53:31;;;;;;;2.35;0.95;;;15.40;46.00;;;;;;2339951;54;20990;-76
2022/05/30 07:55:59;;;;;;;5.05;1.02;;;15.50;46.00;;;;;;2340960;54;21003;-76
2022/05/30 07:58:25;;;;;;;3.85;1.20;;;15.60;45.90;;;;;;2340509;54;20951;-77
2022/05/30 08:00:53;;;;;;;2.75;1.00;;;15.60;45.70;;;;;;2340671;54;20952;-76
2022/05/30 08:03:19;;;;;;;3.85;1.20;;;15.70;45.60;;;;;;2354844;53;20956;-76
2022/05/30 08:05:47;;;;;;;3.92;1.15;;;15.90;45.60;;;;;;2340010;53;20912;-76
2022/05/30 08:08:17;;;;;;;2.62;1.12;;;15.90;45.50;;;;;;2397226;53;21425;-76
2022/05/30 08:10:44;;;;;;;3.25;1.20;;;16.00;45.50;;;;;;2341242;54;21038;-77
2022/05/30 08:13:10;;;;;;;3.53;1.17;;;16.10;45.40;;;;;;2340688;54;20900;-76
2022/05/30 08:15:37;;;;;;;3.40;1.17;;;16.20;45.40;;;;;;2346817;53;20931;-77
2022/05/30 08:18:04;;;;;;;2.15;1.00;;;16.30;45.40;;;;;;2495636;53;20947;-76
2022/05/30 08:20:31;;;;;;;5.10;1.20;;;16.30;45.30;;;;;;2340394;54;21504;-77
2022/05/30 08:22:57;;;;;;;2.30;1.00;;;16.50;45.40;;;;;;2340776;54;21500;-76
2022/05/30 08:25:26;;;;;;;2.15;0.90;;;16.60;45.40;;;;;;2340442;54;20983;-78
2022/05/30 08:27:52;;;;;;;2.15;0.90;;;16.70;45.50;;;;;;2338323;54;21015;-76
2022/05/30 08:30:19;;;;;;;3.37;1.08;;;16.70;45.40;;;;;;2340419;53;20923;-76
2022/05/30 08:32:46;;;;;;;1.95;0.75;;;16.80;45.20;;;;;;2337495;53;21295;-76
2022/05/30 08:35:15;;;;;;;2.47;1.10;;;16.90;45.10;;;;;;2341560;53;21661;-76
2022/05/30 08:37:43;;;;;;;3.45;1.20;;;17.00;45.00;;;;;;2337659;53;21421;-76
2022/05/30 08:44:51;;;;;;;3.12;0.90;;;17.20;44.80;;;;;;2334163;54;21473;-76
2022/05/30 08:47:48;;;;;;;2.05;0.80;;;17.40;44.60;;;;;;2335413;53;21035;-75
2022/05/30 08:53:17;;;;;;;3.92;0.95;;;17.50;44.60;;;;;;2342307;53;21018;-77
2022/05/30 08:57:07;;;;;;;2.85;1.02;;;17.70;44.60;;;;;;2339870;54;20941;-76
2022/05/30 09:00:22;;;;;;;1.80;0.70;;;17.80;44.60;;;;;;2335805;53;21390;-78
2022/05/30 09:02:52;;;;;;;1.52;0.80;;;17.90;44.60;;;;;;2382631;53;21065;-76
2022/05/30 09:05:28;;;;;;;1.87;0.90;;;18.00;44.40;;;;;;2333694;54;21019;-77
2022/05/30 09:08:20;;;;;;;2.42;0.80;;;18.10;44.40;;;;;;2388423;53;21358;-76
2022/05/30 09:10:57;;;;;;;1.90;0.70;;;18.20;44.40;;;;;;2579094;53;21018;-76
2022/05/30 09:13:40;;;;;;;2.03;0.80;;;18.30;44.20;;;;;;2530616;53;21011;-76
2022/05/30 09:16:20;;;;;;;3.37;1.10;;;18.40;43.90;;;;;;2338030;54;21004;-75
2022/05/30 09:18:51;;;;;;;1.42;0.77;;;18.50;43.90;;;;;;2394030;53;20972;-76
2022/05/30 09:21:18;;;;;;;3.35;0.85;;;18.50;43.70;;;;;;2323806;54;21845;-76
2022/05/30 09:23:45;;;;;;;2.72;0.73;;;18.60;43.50;;;;;;2533896;53;21844;-77
2022/05/30 09:26:20;;;;;;;1.60;0.60;;;18.60;43.50;;;;;;2354831;53;20995;-76
2022/05/30 09:28:48;;;;;;;2.20;0.75;;;18.70;43.40;;;;;;2383897;53;21000;-76
2022/05/30 09:32:32;;;;;;;2.65;0.85;;;18.80;43.50;;;;;;2448400;53;20955;-77
2022/05/30 09:35:18;;;;;;;1.35;0.60;;;19.00;43.30;;;;;;2347508;53;21636;-77
2022/05/30 09:37:45;;;;;;;2.80;0.70;;;19.00;43.30;;;;;;2342524;53;20943;-74
2022/05/30 09:40:14;;;;;;;2.22;0.90;;;19.10;43.20;;;;;;2340861;53;21884;-74
2022/05/30 09:42:48;;;;;;;2.28;0.80;;;19.20;43.20;;;;;;2335308;53;20964;-73
2022/05/30 09:45:26;;;;;;;2.15;0.73;;;19.30;43.00;;;;;;2334394;54;21846;-73
2022/05/30 09:48:14;;;;;;;4.03;0.90;;;19.40;42.50;;;;;;2318758;54;21031;-75
2022/05/30 09:50:44;;;;;;;1.75;0.70;;;19.40;42.30;;;;;;2404517;53;20943;-73
2022/05/30 09:53:10;;;;;;;3.30;0.70;;;19.50;42.20;;;;;;2331876;54;21786;-72
2022/05/30 09:55:40;;;;;;;2.85;0.70;;;19.60;41.90;;;;;;2332060;54;20936;-73
2022/05/30 09:58:07;;;;;;;2.17;0.60;;;19.60;41.60;;;;;;2336595;54;20972;-74
2022/05/30 10:00:41;;;;;;;2.00;0.85;;;19.70;41.50;;;;;;2521890;53;21905;-73
2022/05/30 10:03:12;;;;;;;1.40;0.57;;;19.70;41.20;;;;;;2364163;53;21381;-74
2022/05/30 10:05:39;;;;;;;3.33;0.70;;;19.80;41.30;;;;;;2336193;54;21008;-73
2022/05/30 10:08:26;;;;;;;8.50;1.15;;;19.80;41.20;;;;;;2334615;54;20964;-73
2022/05/30 10:10:52;;;;;;;2.28;0.90;;;19.90;40.90;;;;;;2388336;53;20988;-73
2022/05/30 10:13:35;;;;;;;1.40;0.50;;;20.00;40.70;;;;;;2337883;53;22093;-73
2022/05/30 10:16:03;;;;;;;1.37;0.68;;;20.00;40.20;;;;;;2475023;53;21858;-74
2022/05/30 10:18:33;;;;;;;2.17;0.80;;;20.00;40.60;;;;;;2333642;53;20925;-74
2022/05/30 10:30:21;;;;;;;3.22;0.70;;;20.30;40.30;;;;;;2573152;53;20927;-72
2022/05/30 10:36:13;;;;;;;1.70;0.60;;;20.40;40.10;;;;;;2505165;53;20964;-73
2022/05/30 10:39:02;;;;;;;1.98;0.52;;;20.50;40.20;;;;;;2384848;53;21038;-74
2022/05/30 10:43:05;;;;;;;1.65;0.60;;;20.60;39.60;;;;;;2334403;54;20999;-74
2022/05/30 10:45:51;;;;;;;2.35;0.65;;;20.70;39.90;;;;;;2334929;54;20948;-74
2022/05/30 10:48:25;;;;;;;1.30;0.52;;;20.80;39.70;;;;;;2416225;53;20979;-76
2022/05/30 10:52:28;;;;;;;2.17;0.70;;;20.80;39.80;;;;;;2339577;53;21541;-75
2022/05/30 10:55:01;;;;;;;1.77;0.60;;;20.90;39.70;;;;;;2342534;53;20940;-76
2022/05/30 10:57:45;;;;;;;1.92;0.68;;;21.00;40.00;;;;;;2340810;53;21425;-76
2022/05/30 11:00:19;;;;;;;2.30;0.60;;;21.10;39.30;;;;;;2339998;53;21030;-74
2022/05/30 11:03:11;;;;;;;2.08;0.93;;;21.10;39.60;;;;;;2341932;53;20995;-74
2022/05/30 11:06:16;;;;;;;2.00;0.68;;;21.20;39.00;;;;;;2294660;54;2433096;-76
2022/05/30 11:09:06;;;;;;;2.58;0.52;;;21.30;38.60;;;;;;2339163;53;21027;-74
2022/05/30 11:15:15;;;;;;;1.40;0.62;;;21.40;38.30;;;;;;2341339;53;20988;-74
2022/05/30 11:18:17;;;;;;;1.50;0.62;;;21.50;38.30;;;;;;2362212;53;20991;-74
2022/05/30 11:20:49;;;;;;;1.35;0.47;;;21.60;38.70;;;;;;2533168;53;21006;-74
2022/05/30 11:23:16;;;;;;;2.50;0.60;;;21.70;38.70;;;;;;2369825;53;21966;-74
2022/05/30 11:27:23;;;;;;;1.98;0.70;;;21.70;38.70;;;;;;2317177;54;21010;-73
2022/05/30 11:33:02;;;;;;;4.28;0.82;;;21.70;37.90;;;;;;2343718;53;21849;-71
2022/05/30 11:35:43;;;;;;;1.42;0.60;;;21.80;38.00;;;;;;2338790;53;20966;-72
2022/05/30 11:39:53;;;;;;;2.78;0.75;;;22.00;37.90;;;;;;2419442;53;20972;-71
2022/05/30 11:44:17;;;;;;;3.58;0.62;;;22.10;37.60;;;;;;2435549;53;21144;-71
2022/05/30 11:47:04;;;;;;;2.00;0.57;;;22.10;37.20;;;;;;2424086;53;21748;-70
2022/05/30 11:54:45;;;;;;;1.62;0.50;;;22.10;36.70;;;;;;2333451;54;21589;-71
2022/05/30 12:00:47;;;;;;;1.65;0.47;;;22.20;37.20;;;;;;2416537;53;21431;-72
2022/05/30 12:03:56;;;;;;;2.30;0.62;;;22.30;37.10;;;;;;2563724;53;20959;-72
2022/05/30 12:06:32;;;;;;;1.60;0.50;;;22.40;36.10;;;;;;2329102;54;20991;-70
2022/05/30 12:09:36;;;;;;;1.67;0.52;;;22.40;36.50;;;;;;2343547;53;21392;-72
2022/05/30 12:12:27;;;;;;;2.28;0.93;;;22.40;35.50;;;;;;2477412;53;20942;-71
2022/05/30 12:25:44;;;;;;;0.95;0.37;;;22.60;35.60;;;;;;2391970;53;20983;-71
2022/05/30 12:35:21;;;;;;;1.75;0.45;;;22.70;35.40;;;;;;2566245;53;22220;-72
2022/05/30 12:38:10;;;;;;;0.98;0.47;;;22.90;35.50;;;;;;2323903;54;21000;-72
2022/05/30 12:40:41;;;;;;;1.62;0.70;;;22.90;35.60;;;;;;2327461;54;21008;-72
2022/05/30 12:43:53;;;;;;;1.25;0.40;;;22.90;35.20;;;;;;2378639;53;20952;-73
2022/05/30 12:46:28;;;;;;;1.08;0.45;;;22.90;34.40;;;;;;2335251;53;20927;-71
2022/05/30 12:49:18;;;;;;;1.10;0.47;;;23.00;34.90;;;;;;2335218;53;20911;-73
2022/05/30 12:58:55;;;;;;;1.52;0.60;;;23.00;34.40;;;;;;2332394;53;20924;-72
2022/05/30 13:01:22;;;;;;;1.17;0.52;;;23.20;34.70;;;;;;2334213;54;20967;-73
2022/05/30 13:04:04;;;;;;;1.42;0.32;;;23.20;34.60;;;;;;2331583;54;21389;-72
2022/05/30 13:06:31;;;;;;;1.60;0.70;;;23.30;34.00;;;;;;2329375;54;21000;-72
2022/05/30 13:10:40;;;;;;;0.98;0.40;;;23.30;34.30;;;;;;2337046;53;21467;-72
2022/05/30 13:13:13;;;;;;;1.00;0.43;;;23.40;33.90;;;;;;2332638;53;20959;-72
2022/05/30 13:15:51;;;;;;;1.65;0.57;;;23.40;33.70;;;;;;2347226;53;21052;-72
2022/05/30 13:18:20;;;;;;;1.00;0.50;;;23.40;33.10;;;;;;2329001;54;21036;-73
2022/05/30 13:20:51;;;;;;;1.45;0.50;;;23.50;33.40;;;;;;2330399;53;21645;-72
2022/05/30 13:23:27;;;;;;;1.50;0.57;;;23.50;33.10;;;;;;2352591;53;20944;-72
2022/05/30 13:25:53;;;;;;;1.48;0.45;;;23.60;32.70;;;;;;2341297;53;20990;-72
2022/05/30 13:28:21;;;;;;;1.87;0.60;;;23.60;33.00;;;;;;2378919;53;21315;-72
2022/05/30 13:30:48;;;;;;;1.52;0.50;;;23.60;32.70;;;;;;2335584;54;20960;-71
2022/05/30 13:33:23;;;;;;;3.40;1.25;;;23.70;32.70;;;;;;2335054;54;21011;-72
2022/05/30 13:35:57;;;;;;;1.50;0.60;;;23.70;32.10;;;;;;2397170;53;20963;-72
2022/05/30 13:38:38;;;;;;;1.23;0.45;;;23.80;31.80;;;;;;2333382;53;20952;-71
2022/05/30 13:41:38;;;;;;;1.60;0.50;;;23.80;31.90;;;;;;2334247;54;21558;-72
2022/05/30 13:44:09;;;;;;;1.80;0.60;;;23.80;31.50;;;;;;2330743;53;21484;-73
2022/05/30 13:46:39;;;;;;;0.82;0.40;;;23.90;31.90;;;;;;2330703;54;20932;-72
2022/05/30 13:49:05;;;;;;;1.70;0.50;;;23.90;31.80;;;;;;2335116;54;20951;-71
2022/05/30 13:51:39;;;;;;;1.12;0.40;;;24.00;32.10;;;;;;2361201;53;21047;-73
2022/05/30 13:54:09;;;;;;;1.20;0.47;;;24.00;31.40;;;;;;2335014;54;21523;-72
2022/05/30 13:56:37;;;;;;;2.10;0.60;;;24.10;31.60;;;;;;2426916;53;21072;-72
2022/05/30 14:00:21;;;;;;;1.52;0.60;;;24.10;31.60;;;;;;2342395;53;21737;-71
2022/05/30 14:02:49;;;;;;;2.12;0.50;;;24.20;30.60;;;;;;2335775;54;21580;-71
2022/05/30 14:05:48;;;;;;;0.98;0.40;;;24.20;31.20;;;;;;2334859;54;21738;-73
2022/05/30 14:08:29;;;;;;;1.33;0.40;;;24.30;30.80;;;;;;2362372;53;20992;-71
2022/05/30 14:11:00;;;;;;;2.00;0.60;;;24.30;30.30;;;;;;2525323;53;20916;-72
2022/05/30 14:13:35;;;;;;;2.10;0.70;;;24.30;30.70;;;;;;2444115;53;21462;-72
2022/05/30 14:16:23;;;;;;;1.17;0.40;;;24.30;30.70;;;;;;2335548;53;20944;-71
2022/05/30 14:18:57;;;;;;;1.42;0.60;;;24.30;30.80;;;;;;2340368;53;20978;-72
2022/05/30 14:21:30;;;;;;;1.60;0.52;;;24.40;30.60;;;;;;2334952;53;20971;-72
2022/05/30 14:24:03;;;;;;;2.22;0.70;;;24.40;30.50;;;;;;2333986;53;20952;-72
2022/05/30 14:26:33;;;;;;;2.75;0.73;;;24.50;30.50;;;;;;2368556;53;21774;-70
2022/05/30 14:29:01;;;;;;;1.33;0.40;;;24.50;30.60;;;;;;2333385;54;21385;-72
2022/05/30 14:31:29;;;;;;;1.55;0.60;;;24.60;30.60;;;;;;2332926;54;21747;-73
2022/05/30 14:33:58;;;;;;;2.80;0.50;;;24.60;30.20;;;;;;2333426;53;21927;-73
2022/05/30 14:36:46;;;;;;;2.37;0.50;;;24.60;30.00;;;;;;2332663;54;21004;-71
2022/05/30 14:39:20;;;;;;;1.80;0.50;;;24.70;29.60;;;;;;2333080;54;20956;-72
2022/05/30 14:42:04;;;;;;;1.77;0.50;;;24.70;29.90;;;;;;2338404;53;21014;-73
2022/05/30 14:44:37;;;;;;;1.90;0.50;;;24.70;29.20;;;;;;2332136;53;20975;-72
2022/05/30 14:47:07;;;;;;;1.20;0.50;;;24.70;29.30;;;;;;2331223;53;21007;-72
2022/05/30 14:49:34;;;;;;;2.37;0.60;;;24.70;29.40;;;;;;2332934;53;20940;-71
2022/05/30 14:52:03;;;;;;;1.45;0.60;;;24.70;29.20;;;;;;2326456;54;21070;-71
2022/05/30 14:54:35;;;;;;;1.40;0.47;;;24.70;29.30;;;;;;2334756;53;20932;-71
2022/05/30 14:57:03;;;;;;;1.10;0.50;;;24.70;29.10;;;;;;2322451;54;21194;-71
2022/05/30 14:59:37;;;;;;;1.62;0.45;;;24.70;29.10;;;;;;2319712;54;20926;-72
2022/05/30 15:02:05;;;;;;;0.75;0.40;;;24.70;29.00;;;;;;2343452;53;20999;-72